Time;durP1;ratioP1;P1;durP2;ratioP2;P2;SDS_P1;SDS_P2;PMS_P1;PMS_P2;Temp;Humidity;BMP_temperature;BMP_pressure;BME280_temperature;BME280_humidity;BME280_pressure;Samples;Min_cycle;Max_cycle;Signal;HPM_P1;HPM_P2
2024/04/18 00:00:11;;;;;;;14.17;12.40;;;;;;;;;;5287659;26;20258;-87
2024/04/18 00:02:40;;;;;;;14.17;12.53;;;;;;;;;;5337870;26;20304;-84
2024/04/18 00:05:05;;;;;;;14.87;13.37;;;;;;;;;;5334165;26;20293;-85
2024/04/18 00:07:33;;;;;;;14.63;12.90;;;;;;;;;;5335579;26;20348;-87
2024/04/18 00:10:25;;;;;;;15.13;13.53;;;;;;;;;;5364514;26;20310;-87
2024/04/18 00:12:53;;;;;;;15.93;12.97;;;;;;;;;;5414708;26;20304;-86
2024/04/18 00:15:24;;;;;;;15.10;12.73;;;;;;;;;;5329528;26;20411;-87
2024/04/18 00:17:55;;;;;;;14.67;13.27;;;;;;;;;;5338204;26;20265;-87
2024/04/18 00:20:21;;;;;;;15.07;13.53;;;;;;;;;;5329818;26;20621;-87
2024/04/18 00:22:49;;;;;;;17.50;15.33;;;;;;;;;;5356632;26;20317;-86
2024/04/18 00:25:16;;;;;;;17.30;15.47;;;;;;;;;;5344981;26;20335;-85
2024/04/18 00:27:51;;;;;;;17.13;14.63;;;;;;;;;;5353151;26;20304;-87
2024/04/18 00:30:38;;;;;;;17.10;15.27;;;;;;;;;;5324674;26;20296;-87
2024/04/18 00:33:04;;;;;;;18.50;14.73;;;;;;;;;;5323104;26;20262;-87
2024/04/18 00:35:38;;;;;;;15.27;13.67;;;;;;;;;;5349361;26;20326;-88
2024/04/18 00:38:14;;;;;;;17.53;14.87;;;;;;;;;;5351153;26;20372;-88
2024/04/18 00:40:39;;;;;;;19.20;15.90;;;;;;;;;;5295017;26;20261;-87
2024/04/18 00:43:15;;;;;;;16.33;14.60;;;;;;;;;;5348662;26;20253;-87
2024/04/18 00:45:41;;;;;;;16.40;14.80;;;;;;;;;;5344361;26;20292;-87
2024/04/18 00:48:18;;;;;;;18.40;15.37;;;;;;;;;;5322814;26;20262;-87
2024/04/18 00:50:44;;;;;;;17.63;15.17;;;;;;;;;;5352038;26;20761;-87
2024/04/18 00:53:17;;;;;;;16.33;14.53;;;;;;;;;;5324208;26;20296;-88
2024/04/18 00:55:42;;;;;;;18.67;15.37;;;;;;;;;;5324059;26;20258;-85
2024/04/18 00:58:10;;;;;;;17.67;14.87;;;;;;;;;;5316728;26;20267;-88
2024/04/18 01:00:42;;;;;;;17.73;15.17;;;;;;;;;;5345655;26;20254;-86
2024/04/18 01:03:26;;;;;;;18.33;16.00;;;;;;;;;;5320854;26;20318;-87
2024/04/18 01:06:07;;;;;;;17.00;14.47;;;;;;;;;;5324967;26;20300;-87
2024/04/18 01:08:51;;;;;;;17.40;15.57;;;;;;;;;;5356391;26;20300;-85
2024/04/18 01:11:28;;;;;;;16.23;14.63;;;;;;;;;;5352374;26;20684;-87
2024/04/18 01:14:08;;;;;;;18.90;15.63;;;;;;;;;;5319687;26;20263;-88
2024/04/18 01:16:52;;;;;;;17.90;15.40;;;;;;;;;;5366223;26;20351;-86
2024/04/18 01:19:18;;;;;;;20.97;16.43;;;;;;;;;;5290507;26;20770;-87
2024/04/18 01:21:45;;;;;;;18.50;16.40;;;;;;;;;;5313081;26;20819;-87
2024/04/18 01:24:13;;;;;;;18.40;15.97;;;;;;;;;;5347893;26;20266;-87
2024/04/18 01:26:41;;;;;;;21.17;16.63;;;;;;;;;;5305792;26;20313;-87
2024/04/18 01:29:07;;;;;;;19.30;16.90;;;;;;;;;;5318927;26;20825;-86
2024/04/18 01:31:32;;;;;;;17.73;15.83;;;;;;;;;;5343610;26;20255;-87
2024/04/18 01:33:58;;;;;;;19.20;16.50;;;;;;;;;;5346328;26;20959;-87
2024/04/18 01:36:24;;;;;;;20.17;17.63;;;;;;;;;;5317598;26;20254;-87
2024/04/18 01:38:50;;;;;;;19.37;17.00;;;;;;;;;;5294014;26;20311;-87
2024/04/18 01:41:28;;;;;;;18.80;16.60;;;;;;;;;;5336642;26;20356;-86
2024/04/18 01:43:59;;;;;;;22.00;17.57;;;;;;;;;;5285407;26;20259;-87
2024/04/18 01:46:43;;;;;;;22.13;18.37;;;;;;;;;;5327762;26;20645;-88
2024/04/18 01:49:28;;;;;;;19.17;16.90;;;;;;;;;;5347237;26;20287;-86
2024/04/18 01:51:56;;;;;;;22.00;18.00;;;;;;;;;;5344540;26;20264;-87
2024/04/18 01:54:33;;;;;;;18.10;16.20;;;;;;;;;;5316187;26;20259;-86
2024/04/18 01:57:01;;;;;;;19.93;16.80;;;;;;;;;;5321236;26;20254;-87
2024/04/18 01:59:49;;;;;;;19.50;17.27;;;;;;;;;;5344728;26;20303;-85
2024/04/18 02:02:18;;;;;;;20.97;17.63;;;;;;;;;;5335183;26;20302;-86
2024/04/18 02:05:03;;;;;;;19.00;16.10;;;;;;;;;;5320230;26;20261;-86
2024/04/18 02:07:44;;;;;;;26.37;18.53;;;;;;;;;;5370503;26;20743;-86
2024/04/18 02:10:09;;;;;;;21.27;18.10;;;;;;;;;;5361523;26;20355;-86
2024/04/18 02:12:56;;;;;;;20.43;17.27;;;;;;;;;;5330111;26;20257;-87
2024/04/18 02:15:41;;;;;;;21.43;17.43;;;;;;;;;;5348623;26;20270;-87
2024/04/18 02:18:16;;;;;;;21.10;17.50;;;;;;;;;;5373139;26;20270;-87
2024/04/18 02:20:41;;;;;;;22.17;18.00;;;;;;;;;;5326289;26;20644;-87
2024/04/18 02:23:22;;;;;;;21.27;18.37;;;;;;;;;;5350884;26;20262;-86
2024/04/18 02:25:51;;;;;;;22.30;18.10;;;;;;;;;;5376531;26;20305;-88
2024/04/18 02:28:16;;;;;;;23.37;18.17;;;;;;;;;;5338748;26;20259;-88
2024/04/18 02:30:42;;;;;;;22.80;18.50;;;;;;;;;;5321065;26;20315;-87
2024/04/18 02:33:14;;;;;;;22.80;18.97;;;;;;;;;;5292931;26;20356;-87
2024/04/18 02:35:46;;;;;;;22.90;19.73;;;;;;;;;;5316499;26;20266;-87
2024/04/18 02:38:30;;;;;;;25.77;20.33;;;;;;;;;;5357481;26;20281;-85
2024/04/18 02:41:05;;;;;;;26.73;20.07;;;;;;;;;;5370949;26;20249;-85
2024/04/18 02:43:50;;;;;;;24.47;19.97;;;;;;;;;;5366834;26;20251;-86
2024/04/18 02:46:15;;;;;;;26.83;21.33;;;;;;;;;;5375443;26;20802;-87
2024/04/18 02:49:01;;;;;;;21.23;18.77;;;;;;;;;;5373638;26;20289;-86
2024/04/18 02:51:27;;;;;;;25.43;21.13;;;;;;;;;;5393976;26;20387;-86
2024/04/18 02:54:10;;;;;;;25.10;19.73;;;;;;;;;;5372654;26;20246;-86
2024/04/18 02:56:36;;;;;;;26.03;21.10;;;;;;;;;;5341224;26;20292;-87
2024/04/18 02:59:10;;;;;;;24.43;19.83;;;;;;;;;;5338314;26;20266;-86
2024/04/18 03:01:51;;;;;;;24.17;19.10;;;;;;;;;;5346916;26;20241;-86
2024/04/18 03:04:16;;;;;;;24.90;19.83;;;;;;;;;;5362766;26;20259;-85
2024/04/18 03:06:44;;;;;;;29.00;22.40;;;;;;;;;;5366104;26;20268;-86
2024/04/18 03:09:13;;;;;;;30.20;22.07;;;;;;;;;;5365112;26;20254;-87
2024/04/18 03:11:54;;;;;;;28.87;22.40;;;;;;;;;;5368906;26;20253;-87
2024/04/18 03:14:42;;;;;;;29.67;21.83;;;;;;;;;;5387279;26;20277;-85
2024/04/18 03:17:12;;;;;;;28.40;20.53;;;;;;;;;;5363497;26;20573;-85
2024/04/18 03:20:07;;;;;;;23.10;19.37;;;;;;;;;;5352529;26;20266;-86
2024/04/18 03:22:52;;;;;;;24.63;19.67;;;;;;;;;;5394806;26;20257;-86
2024/04/18 03:25:18;;;;;;;25.13;20.20;;;;;;;;;;5364379;26;20274;-88
2024/04/18 03:28:00;;;;;;;26.63;21.40;;;;;;;;;;5399425;26;20273;-86
2024/04/18 03:30:26;;;;;;;27.47;21.17;;;;;;;;;;5364598;26;20301;-86
2024/04/18 03:33:07;;;;;;;26.90;20.03;;;;;;;;;;5368217;26;20255;-86
2024/04/18 03:35:40;;;;;;;24.77;20.13;;;;;;;;;;5364608;26;20303;-86
2024/04/18 03:38:14;;;;;;;26.07;19.77;;;;;;;;;;5337915;26;20647;-87
2024/04/18 03:40:40;;;;;;;24.97;19.67;;;;;;;;;;5289401;26;20265;-86
2024/04/18 03:43:05;;;;;;;25.07;20.03;;;;;;;;;;5337945;26;20335;-87
2024/04/18 03:45:31;;;;;;;21.60;18.53;;;;;;;;;;5371218;26;20242;-86
2024/04/18 03:48:15;;;;;;;24.00;19.03;;;;;;;;;;5346666;26;20351;-87
2024/04/18 03:50:43;;;;;;;23.37;20.13;;;;;;;;;;5395436;26;20254;-87
2024/04/18 03:53:19;;;;;;;25.83;20.37;;;;;;;;;;5366102;26;20297;-87
2024/04/18 03:55:44;;;;;;;24.07;19.87;;;;;;;;;;5363704;26;20382;-87
2024/04/18 04:01:57;;;;;;;28.43;19.93;;;;;;;;;;5389622;26;20359;-87
2024/04/18 04:04:25;;;;;;;28.47;20.23;;;;;;;;;;5361981;26;20268;-87
2024/04/18 04:06:51;;;;;;;27.20;20.10;;;;;;;;;;5362394;26;20254;-87
2024/04/18 04:09:16;;;;;;;25.90;19.77;;;;;;;;;;5391856;26;20695;-86
2024/04/18 04:11:41;;;;;;;26.83;20.33;;;;;;;;;;5364890;26;20297;-86
2024/04/18 04:14:11;;;;;;;30.90;21.80;;;;;;;;;;5362670;26;20292;-85
2024/04/18 04:16:51;;;;;;;29.23;21.97;;;;;;;;;;5338413;26;20322;-86
2024/04/18 04:19:16;;;;;;;25.47;19.90;;;;;;;;;;5354486;26;20255;-87
2024/04/18 04:21:48;;;;;;;26.60;20.63;;;;;;;;;;5362855;26;20258;-87
2024/04/18 04:24:13;;;;;;;28.70;21.47;;;;;;;;;;5361527;26;20333;-86
2024/04/18 04:26:49;;;;;;;31.37;22.40;;;;;;;;;;5334877;26;20276;-87
2024/04/18 04:29:15;;;;;;;28.97;21.43;;;;;;;;;;5357888;26;20328;-86
2024/04/18 04:31:40;;;;;;;32.57;23.07;;;;;;;;;;5333916;26;20490;-88
2024/04/18 04:34:07;;;;;;;36.47;24.17;;;;;;;;;;5337359;26;20258;-87
2024/04/18 04:36:35;;;;;;;35.50;24.67;;;;;;;;;;5355946;26;20262;-87
2024/04/18 04:39:00;;;;;;;31.93;23.97;;;;;;;;;;5326379;26;20340;-85
2024/04/18 04:41:38;;;;;;;33.07;23.90;;;;;;;;;;5359308;26;20295;-86
2024/04/18 04:44:06;;;;;;;31.50;23.20;;;;;;;;;;5329577;26;20262;-86
2024/04/18 04:46:48;;;;;;;42.27;25.00;;;;;;;;;;5359759;26;20254;-86
2024/04/18 04:49:21;;;;;;;35.77;26.37;;;;;;;;;;5326746;26;20258;-87
2024/04/18 04:51:58;;;;;;;42.20;28.53;;;;;;;;;;5384911;26;20258;-87
2024/04/18 04:54:46;;;;;;;38.77;28.73;;;;;;;;;;5351324;26;20822;-87
2024/04/18 04:57:15;;;;;;;45.67;28.60;;;;;;;;;;5380608;26;20254;-86
2024/04/18 04:59:40;;;;;;;43.87;28.83;;;;;;;;;;5350921;26;20286;-86
2024/04/18 05:02:06;;;;;;;38.47;27.83;;;;;;;;;;5356557;26;20545;-86
2024/04/18 05:04:49;;;;;;;37.37;26.53;;;;;;;;;;5328752;26;20325;-86
2024/04/18 05:07:31;;;;;;;39.17;26.93;;;;;;;;;;5305643;26;20262;-86
2024/04/18 05:10:22;;;;;;;37.57;25.30;;;;;;;;;;5364534;26;20297;-86
2024/04/18 05:12:51;;;;;;;35.47;25.23;;;;;;;;;;5333079;26;20649;-85
2024/04/18 05:15:37;;;;;;;40.17;26.33;;;;;;;;;;5303781;26;20744;-85
2024/04/18 05:18:03;;;;;;;40.03;27.03;;;;;;;;;;5323002;26;20273;-86
2024/04/18 05:20:37;;;;;;;42.80;28.37;;;;;;;;;;5321349;26;20296;-87
2024/04/18 05:23:04;;;;;;;39.13;27.13;;;;;;;;;;5353842;26;20325;-86
2024/04/18 05:25:30;;;;;;;44.33;28.53;;;;;;;;;;5388340;26;20261;-85
2024/04/18 05:28:20;;;;;;;40.70;27.93;;;;;;;;;;5355840;26;20312;-85
2024/04/18 05:31:01;;;;;;;40.10;27.50;;;;;;;;;;5341490;26;20296;-85
2024/04/18 05:33:32;;;;;;;39.13;27.67;;;;;;;;;;5349253;26;20341;-87
2024/04/18 05:35:58;;;;;;;44.40;28.87;;;;;;;;;;5372609;26;20273;-86
2024/04/18 05:38:24;;;;;;;38.57;27.10;;;;;;;;;;5328696;26;20269;-86
2024/04/18 05:40:52;;;;;;;43.57;28.93;;;;;;;;;;5334233;26;20348;-87
2024/04/18 05:43:18;;;;;;;44.93;29.43;;;;;;;;;;5355096;26;20270;-87
2024/04/18 05:45:47;;;;;;;38.87;27.47;;;;;;;;;;5352750;26;20309;-87
2024/04/18 05:48:13;;;;;;;40.47;28.17;;;;;;;;;;5305813;26;20257;-86
2024/04/18 05:50:38;;;;;;;44.17;28.83;;;;;;;;;;5364814;26;20250;-86
2024/04/18 05:53:04;;;;;;;42.60;28.50;;;;;;;;;;5297349;26;20764;-86
2024/04/18 05:55:50;;;;;;;38.17;28.00;;;;;;;;;;5329957;26;20341;-87
2024/04/18 05:58:16;;;;;;;41.20;27.17;;;;;;;;;;5398523;26;20764;-85
2024/04/18 06:00:53;;;;;;;40.40;28.33;;;;;;;;;;5332707;26;20319;-86
2024/04/18 06:03:19;;;;;;;44.20;29.10;;;;;;;;;;5370586;26;20262;-86
2024/04/18 06:05:45;;;;;;;38.57;27.03;;;;;;;;;;5316844;26;20258;-87
2024/04/18 06:08:13;;;;;;;41.67;28.87;;;;;;;;;;5336340;26;20326;-87
2024/04/18 06:10:41;;;;;;;38.07;28.63;;;;;;;;;;5375288;26;20285;-89
2024/04/18 06:13:24;;;;;;;39.33;28.47;;;;;;;;;;5345157;26;20258;-79
2024/04/18 06:15:50;;;;;;;42.13;29.77;;;;;;;;;;5346534;26;20990;-80
2024/04/18 06:18:15;;;;;;;41.43;28.50;;;;;;;;;;5346058;26;20297;-81
2024/04/18 06:20:45;;;;;;;43.13;30.27;;;;;;;;;;5372367;26;20822;-81
2024/04/18 06:23:10;;;;;;;44.73;30.43;;;;;;;;;;5319088;26;20309;-78
2024/04/18 06:25:36;;;;;;;44.37;30.80;;;;;;;;;;5376226;26;20258;-79
2024/04/18 06:28:03;;;;;;;44.77;30.63;;;;;;;;;;5347292;26;20257;-79
2024/04/18 06:30:28;;;;;;;47.37;31.10;;;;;;;;;;5364850;26;20271;-78
2024/04/18 06:32:57;;;;;;;48.13;31.50;;;;;;;;;;5319680;26;20249;-81
2024/04/18 06:35:22;;;;;;;44.43;31.30;;;;;;;;;;5313583;26;20258;-78
2024/04/18 06:37:48;;;;;;;44.33;30.97;;;;;;;;;;5387904;26;20285;-77
2024/04/18 06:40:14;;;;;;;42.90;30.93;;;;;;;;;;5380330;26;20292;-78
2024/04/18 06:42:39;;;;;;;45.07;29.80;;;;;;;;;;5323059;26;20730;-78
2024/04/18 06:45:06;;;;;;;43.77;29.70;;;;;;;;;;5383383;26;20254;-77
2024/04/18 06:47:31;;;;;;;42.63;30.23;;;;;;;;;;5351304;26;20348;-78
2024/04/18 06:50:06;;;;;;;41.27;29.47;;;;;;;;;;5359048;26;20328;-78
2024/04/18 06:52:32;;;;;;;41.07;28.33;;;;;;;;;;5379428;26;20304;-77
2024/04/18 06:54:58;;;;;;;40.77;27.13;;;;;;;;;;5353261;26;20313;-77
2024/04/18 06:57:44;;;;;;;35.27;25.03;;;;;;;;;;5354065;26;20257;-77
2024/04/18 07:00:10;;;;;;;36.33;25.07;;;;;;;;;;5325532;26;20254;-77
2024/04/18 07:02:35;;;;;;;30.63;24.03;;;;;;;;;;5340732;26;20273;-80
2024/04/18 07:05:21;;;;;;;29.37;21.57;;;;;;;;;;5345371;26;20288;-81
2024/04/18 07:07:47;;;;;;;23.70;19.57;;;;;;;;;;5315094;26;20250;-79
2024/04/18 07:10:31;;;;;;;19.50;16.07;;;;;;;;;;5351977;26;20253;-78
2024/04/18 07:12:56;;;;;;;26.20;20.47;;;;;;;;;;5373017;26;20258;-79
2024/04/18 07:15:24;;;;;;;25.57;20.23;;;;;;;;;;5380124;26;20304;-79
2024/04/18 07:18:10;;;;;;;19.20;16.47;;;;;;;;;;5356448;26;20313;-78
2024/04/18 07:20:36;;;;;;;15.87;11.67;;;;;;;;;;5356966;26;20321;-79
2024/04/18 07:23:04;;;;;;;15.30;13.70;;;;;;;;;;5358631;26;20261;-78
2024/04/18 07:25:30;;;;;;;12.00;8.43;;;;;;;;;;5334566;26;20343;-78
2024/04/18 07:27:56;;;;;;;4.37;3.93;;;;;;;;;;5328205;26;20280;-78
2024/04/18 07:30:24;;;;;;;9.03;8.13;;;;;;;;;;5411976;26;20296;-77
2024/04/18 07:32:51;;;;;;;8.17;7.37;;;;;;;;;;5383248;26;20275;-78
2024/04/18 07:35:38;;;;;;;8.17;6.83;;;;;;;;;;5370869;26;20276;-78
2024/04/18 07:38:05;;;;;;;5.20;4.80;;;;;;;;;;5415062;26;20250;-87
2024/04/18 07:40:30;;;;;;;6.30;4.53;;;;;;;;;;5356719;26;20290;-86
2024/04/18 07:42:56;;;;;;;4.50;4.10;;;;;;;;;;5308400;26;20290;-86
2024/04/18 07:45:22;;;;;;;6.10;3.10;;;;;;;;;;5364886;26;20280;-85
2024/04/18 07:47:47;;;;;;;3.10;2.90;;;;;;;;;;5366423;26;20320;-85
2024/04/18 07:50:13;;;;;;;2.27;1.70;;;;;;;;;;5397105;26;20246;-87
2024/04/18 07:52:39;;;;;;;1.60;1.50;;;;;;;;;;5339104;26;20281;-85
2024/04/18 07:55:05;;;;;;;2.63;1.43;;;;;;;;;;5366950;26;20241;-84
2024/04/18 07:57:31;;;;;;;1.73;1.30;;;;;;;;;;5336185;26;20245;-84
2024/04/18 08:00:03;;;;;;;2.17;1.40;;;;;;;;;;5340644;26;20239;-84
2024/04/18 08:02:39;;;;;;;1.63;1.50;;;;;;;;;;5371151;26;20254;-86
2024/04/18 08:05:07;;;;;;;2.00;1.70;;;;;;;;;;5367677;26;20284;-85
2024/04/18 08:07:34;;;;;;;2.50;1.90;;;;;;;;;;5369260;26;20257;-85
2024/04/18 08:10:00;;;;;;;1.93;1.70;;;;;;;;;;5358745;26;20270;-85
2024/04/18 08:12:28;;;;;;;1.80;1.70;;;;;;;;;;5361502;26;20270;-84
2024/04/18 08:14:54;;;;;;;1.60;1.47;;;;;;;;;;5335248;26;20311;-85
2024/04/18 08:17:19;;;;;;;2.67;1.80;;;;;;;;;;5357728;26;20261;-84
2024/04/18 08:19:45;;;;;;;2.10;1.50;;;;;;;;;;5364772;26;20250;-84
2024/04/18 08:22:10;;;;;;;2.10;1.87;;;;;;;;;;5364441;26;20298;-84
2024/04/18 08:24:38;;;;;;;2.83;1.83;;;;;;;;;;5359536;26;20250;-85
2024/04/18 08:27:06;;;;;;;3.07;1.40;;;;;;;;;;5336976;26;20251;-85
2024/04/18 08:29:32;;;;;;;1.63;1.53;;;;;;;;;;5351959;26;20299;-85
2024/04/18 08:32:00;;;;;;;2.40;1.50;;;;;;;;;;5342294;26;20296;-84
2024/04/18 08:34:26;;;;;;;1.50;1.40;;;;;;;;;;5369191;26;20242;-85
2024/04/18 08:36:51;;;;;;;1.80;1.50;;;;;;;;;;5397928;26;20245;-83
2024/04/18 08:39:18;;;;;;;3.87;1.47;;;;;;;;;;5361378;26;20246;-83
2024/04/18 08:41:44;;;;;;;2.63;1.50;;;;;;;;;;5368977;26;20286;-85
2024/04/18 08:44:09;;;;;;;2.50;1.73;;;;;;;;;;5365913;26;20285;-86
2024/04/18 08:46:37;;;;;;;2.27;1.50;;;;;;;;;;5369001;26;20254;-84
2024/04/18 08:49:06;;;;;;;2.60;1.70;;;;;;;;;;5368864;26;20246;-85
2024/04/18 08:51:36;;;;;;;2.20;1.70;;;;;;;;;;5366707;26;20263;-85
2024/04/18 08:54:05;;;;;;;3.20;1.70;;;;;;;;;;5370508;26;20283;-84
2024/04/18 08:56:34;;;;;;;2.10;1.73;;;;;;;;;;5395457;26;20258;-85
2024/04/18 08:59:00;;;;;;;2.43;1.80;;;;;;;;;;5369756;26;20249;-84
2024/04/18 09:01:28;;;;;;;2.33;1.83;;;;;;;;;;5339111;26;20257;-86
2024/04/18 09:03:56;;;;;;;2.10;1.87;;;;;;;;;;5375786;26;20324;-87
2024/04/18 09:06:22;;;;;;;1.67;1.57;;;;;;;;;;5368619;26;20264;-84
2024/04/18 09:08:56;;;;;;;2.77;1.60;;;;;;;;;;5340097;26;20250;-84
2024/04/18 09:11:22;;;;;;;1.83;1.53;;;;;;;;;;5364244;26;20253;-84
2024/04/18 09:13:47;;;;;;;1.80;1.70;;;;;;;;;;5364104;26;20324;-84
2024/04/18 09:16:15;;;;;;;2.37;2.17;;;;;;;;;;5368079;26;20296;-86
2024/04/18 09:18:41;;;;;;;3.30;1.90;;;;;;;;;;5366696;26;20254;-85
2024/04/18 09:21:13;;;;;;;4.33;2.20;;;;;;;;;;5423431;26;20250;-84
2024/04/18 09:23:39;;;;;;;2.43;1.90;;;;;;;;;;5397829;26;20273;-84
2024/04/18 09:26:07;;;;;;;3.40;2.00;;;;;;;;;;5394334;26;20247;-82
2024/04/18 09:28:35;;;;;;;2.27;1.30;;;;;;;;;;5371845;26;20276;-82
2024/04/18 09:31:00;;;;;;;3.03;1.97;;;;;;;;;;5357551;26;20262;-83
2024/04/18 09:33:26;;;;;;;1.90;1.70;;;;;;;;;;5343515;26;20280;-83
2024/04/18 09:36:00;;;;;;;2.63;1.57;;;;;;;;;;5352546;26;20316;-84
2024/04/18 09:38:28;;;;;;;2.37;1.50;;;;;;;;;;5380217;26;20254;-82
2024/04/18 09:41:03;;;;;;;1.33;1.07;;;;;;;;;;5422086;26;20273;-83
2024/04/18 09:43:41;;;;;;;2.63;1.47;;;;;;;;;;5390478;26;20265;-83
2024/04/18 09:46:09;;;;;;;1.57;1.40;;;;;;;;;;5370780;26;20242;-83
2024/04/18 09:48:36;;;;;;;2.60;1.60;;;;;;;;;;5364887;26;20309;-84
2024/04/18 09:51:02;;;;;;;2.53;1.83;;;;;;;;;;5370489;26;20266;-84
2024/04/18 09:53:29;;;;;;;2.33;1.77;;;;;;;;;;5340981;26;20659;-83
2024/04/18 09:55:57;;;;;;;3.27;1.50;;;;;;;;;;5311891;26;20293;-86
2024/04/18 09:58:22;;;;;;;1.80;1.50;;;;;;;;;;5338833;26;20280;-85
2024/04/18 10:00:48;;;;;;;3.43;1.80;;;;;;;;;;5359981;26;20255;-82
2024/04/18 10:03:15;;;;;;;1.80;1.60;;;;;;;;;;5393923;26;20301;-85
2024/04/18 10:05:44;;;;;;;2.07;1.33;;;;;;;;;;5336632;26;20246;-85
2024/04/18 10:08:10;;;;;;;1.67;1.37;;;;;;;;;;5368297;26;20305;-84
2024/04/18 10:10:36;;;;;;;1.57;1.43;;;;;;;;;;5336618;26;20285;-84
2024/04/18 10:13:04;;;;;;;1.57;1.47;;;;;;;;;;5335431;26;20293;-84
2024/04/18 10:15:32;;;;;;;4.23;3.60;;;;;;;;;;5362727;26;20246;-84
2024/04/18 10:18:10;;;;;;;11.47;9.47;;;;;;;;;;5391497;26;20258;-83
2024/04/18 10:20:44;;;;;;;27.93;15.53;;;;;;;;;;5393031;26;20312;-84
2024/04/18 10:23:18;;;;;;;3.20;1.50;;;;;;;;;;5335304;26;20306;-83
2024/04/18 10:25:44;;;;;;;2.80;1.10;;;;;;;;;;5389529;26;20242;-84
2024/04/18 10:28:20;;;;;;;1.47;1.23;;;;;;;;;;5334029;26;20305;-82
2024/04/18 10:30:48;;;;;;;1.43;1.33;;;;;;;;;;5336984;26;20275;-82
2024/04/18 10:33:16;;;;;;;3.43;1.80;;;;;;;;;;5364360;26;20277;-83
2024/04/18 10:35:46;;;;;;;2.20;1.93;;;;;;;;;;5308923;26;20259;-84
2024/04/18 10:38:23;;;;;;;1.90;1.63;;;;;;;;;;5365181;26;20253;-85
2024/04/18 10:41:05;;;;;;;1.50;1.40;;;;;;;;;;5330168;26;20337;-84
2024/04/18 10:43:36;;;;;;;2.93;2.30;;;;;;;;;;5323045;26;20338;-81
2024/04/18 10:46:06;;;;;;;1.60;1.50;;;;;;;;;;5335495;26;20266;-84
2024/04/18 10:48:42;;;;;;;1.67;1.50;;;;;;;;;;5364482;26;20285;-83
2024/04/18 10:51:07;;;;;;;4.20;1.70;;;;;;;;;;5366146;26;20364;-83
2024/04/18 10:53:34;;;;;;;1.70;1.60;;;;;;;;;;5365703;26;20262;-83
2024/04/18 10:56:00;;;;;;;3.40;1.63;;;;;;;;;;5336880;26;20286;-83
2024/04/18 10:58:26;;;;;;;1.90;1.47;;;;;;;;;;5363752;26;20286;-82
2024/04/18 11:00:58;;;;;;;1.87;1.70;;;;;;;;;;5338305;26;20254;-81
2024/04/18 11:03:27;;;;;;;1.83;1.50;;;;;;;;;;5337159;26;20266;-83
2024/04/18 11:05:56;;;;;;;1.57;1.40;;;;;;;;;;5386496;26;20261;-83
2024/04/18 11:08:25;;;;;;;1.77;1.40;;;;;;;;;;5365503;26;20292;-83
2024/04/18 11:10:53;;;;;;;1.53;1.43;;;;;;;;;;5368355;26;20246;-84
2024/04/18 11:13:19;;;;;;;1.25;1.15;;;;;;;;;;5391433;26;20336;-80
2024/04/18 11:15:44;;;;;;;1.57;1.40;;;;;;;;;;5366381;26;20261;-83
2024/04/18 11:18:15;;;;;;;1.20;1.10;;;;;;;;;;5345665;26;20269;-83
2024/04/18 11:20:41;;;;;;;2.33;1.20;;;;;;;;;;5365901;26;20249;-82
2024/04/18 11:23:06;;;;;;;2.10;1.27;;;;;;;;;;5393640;26;20280;-82
2024/04/18 11:25:34;;;;;;;2.37;1.43;;;;;;;;;;5366567;26;20353;-83
2024/04/18 11:28:09;;;;;;;1.80;1.40;;;;;;;;;;5341065;26;20254;-83
2024/04/18 11:30:41;;;;;;;2.17;1.40;;;;;;;;;;5390826;26;20249;-83
2024/04/18 11:33:12;;;;;;;2.27;1.70;;;;;;;;;;5367652;26;20249;-83
2024/04/18 11:35:38;;;;;;;3.33;1.77;;;;;;;;;;5367719;26;20355;-83
2024/04/18 11:38:09;;;;;;;3.33;1.60;;;;;;;;;;5314895;26;20250;-80
2024/04/18 11:40:38;;;;;;;2.20;1.70;;;;;;;;;;5339038;26;20272;-83
2024/04/18 11:43:06;;;;;;;2.85;1.90;;;;;;;;;;5363270;26;20270;-84
2024/04/18 11:45:31;;;;;;;2.20;1.50;;;;;;;;;;5392762;26;20263;-86
2024/04/18 11:47:57;;;;;;;2.10;1.40;;;;;;;;;;5359536;26;20809;-79
2024/04/18 11:50:25;;;;;;;2.40;1.70;;;;;;;;;;5346486;26;20608;-79
2024/04/18 11:52:50;;;;;;;2.73;1.90;;;;;;;;;;5345822;26;20325;-78
2024/04/18 11:55:26;;;;;;;2.40;1.50;;;;;;;;;;5405473;26;20276;-78
2024/04/18 11:57:52;;;;;;;2.33;1.80;;;;;;;;;;5317988;26;21549;-79
2024/04/18 12:00:46;;;;;;;1.87;1.67;;;;;;;;;;5362449;26;20262;-77
2024/04/18 12:03:11;;;;;;;3.43;1.77;;;;;;;;;;5376303;26;20315;-79
2024/04/18 12:05:51;;;;;;;3.17;1.60;;;;;;;;;;5371592;26;20323;-80
2024/04/18 12:08:17;;;;;;;2.20;1.53;;;;;;;;;;5320334;26;20270;-79
2024/04/18 12:10:47;;;;;;;2.50;1.83;;;;;;;;;;5326289;26;20250;-79
2024/04/18 12:13:32;;;;;;;2.53;1.57;;;;;;;;;;5334941;26;20250;-78
2024/04/18 12:16:00;;;;;;;2.73;1.70;;;;;;;;;;5318361;26;20329;-78
2024/04/18 12:18:29;;;;;;;3.97;1.60;;;;;;;;;;5321582;26;20254;-79
2024/04/18 12:20:57;;;;;;;3.57;1.90;;;;;;;;;;5379050;26;20847;-80
2024/04/18 12:23:36;;;;;;;2.83;2.00;;;;;;;;;;5402750;26;20607;-79
2024/04/18 12:26:07;;;;;;;3.83;2.33;;;;;;;;;;5348343;26;20810;-80
2024/04/18 12:28:53;;;;;;;4.40;2.23;;;;;;;;;;5326373;26;20707;-79
2024/04/18 12:31:21;;;;;;;3.00;2.00;;;;;;;;;;5406380;26;20430;-79
2024/04/18 12:33:49;;;;;;;2.70;2.20;;;;;;;;;;5319270;26;20299;-81
2024/04/18 12:36:16;;;;;;;3.90;2.10;;;;;;;;;;5345827;26;20335;-80
2024/04/18 12:38:44;;;;;;;2.93;2.00;;;;;;;;;;5347750;26;20303;-77
2024/04/18 12:41:13;;;;;;;3.27;1.90;;;;;;;;;;5405326;26;20261;-79
2024/04/18 12:43:41;;;;;;;2.10;1.50;;;;;;;;;;5380422;26;20293;-79
2024/04/18 12:46:25;;;;;;;3.60;1.77;;;;;;;;;;5350284;26;20561;-79
2024/04/18 12:48:56;;;;;;;3.53;1.97;;;;;;;;;;5318552;26;21180;-80
2024/04/18 12:51:22;;;;;;;2.37;1.70;;;;;;;;;;5349164;26;20258;-80
2024/04/18 12:53:50;;;;;;;2.77;1.90;;;;;;;;;;5322317;26;20304;-80
2024/04/18 12:56:35;;;;;;;2.30;1.50;;;;;;;;;;5405642;26;20258;-81
2024/04/18 12:59:19;;;;;;;2.90;1.43;;;;;;;;;;5329890;26;20289;-82
2024/04/18 13:01:45;;;;;;;1.63;1.20;;;;;;;;;;5353974;26;20258;-80
2024/04/18 13:04:17;;;;;;;2.47;1.30;;;;;;;;;;5348113;26;20278;-81
2024/04/18 13:06:45;;;;;;;1.87;1.00;;;;;;;;;;5351577;26;20274;-78
2024/04/18 13:09:32;;;;;;;1.70;1.00;;;;;;;;;;5383455;26;20250;-79
2024/04/18 13:12:04;;;;;;;1.73;1.07;;;;;;;;;;5329103;26;20255;-80
2024/04/18 13:14:48;;;;;;;1.27;0.90;;;;;;;;;;5357168;26;20284;-79
2024/04/18 13:17:14;;;;;;;1.60;0.80;;;;;;;;;;5353548;26;20258;-81
2024/04/18 13:19:45;;;;;;;2.60;0.90;;;;;;;;;;5379728;26;20266;-79
2024/04/18 13:22:14;;;;;;;1.80;0.90;;;;;;;;;;5298343;26;20253;-80
2024/04/18 13:24:40;;;;;;;1.37;0.70;;;;;;;;;;5325608;26;20253;-80
2024/04/18 13:27:23;;;;;;;1.43;0.83;;;;;;;;;;5382285;26;20286;-80
2024/04/18 13:29:52;;;;;;;1.37;0.73;;;;;;;;;;5349528;26;20369;-79
2024/04/18 13:32:33;;;;;;;1.30;0.90;;;;;;;;;;5301925;26;20278;-78
2024/04/18 13:35:01;;;;;;;2.70;0.70;;;;;;;;;;5324098;26;20302;-79
2024/04/18 13:37:29;;;;;;;1.53;0.80;;;;;;;;;;5344206;26;20271;-80
2024/04/18 13:40:14;;;;;;;2.27;1.20;;;;;;;;;;5343605;26;20296;-80
2024/04/18 13:43:01;;;;;;;1.77;0.80;;;;;;;;;;5331311;26;20266;-78
2024/04/18 13:45:27;;;;;;;1.47;0.90;;;;;;;;;;5349879;26;20270;-80
2024/04/18 13:47:53;;;;;;;3.07;1.20;;;;;;;;;;5294307;26;20322;-78
2024/04/18 13:50:38;;;;;;;1.43;1.10;;;;;;;;;;5355004;26;20799;-79
2024/04/18 13:53:04;;;;;;;2.50;1.20;;;;;;;;;;5373226;26;20254;-79
2024/04/18 13:55:30;;;;;;;2.13;1.10;;;;;;;;;;5347273;26;20423;-78
2024/04/18 13:57:55;;;;;;;2.27;1.10;;;;;;;;;;5418714;26;20340;-78
2024/04/18 14:00:21;;;;;;;3.53;1.30;;;;;;;;;;5360190;26;20305;-78
2024/04/18 14:02:47;;;;;;;2.40;1.00;;;;;;;;;;5356153;26;20277;-81
2024/04/18 14:05:19;;;;;;;2.67;0.90;;;;;;;;;;5386021;26;20309;-80
2024/04/18 14:08:05;;;;;;;1.67;1.10;;;;;;;;;;5347344;26;20834;-80
2024/04/18 14:10:32;;;;;;;1.60;1.10;;;;;;;;;;5343110;26;20267;-81
2024/04/18 14:13:19;;;;;;;2.77;0.93;;;;;;;;;;5354879;26;20332;-80
2024/04/18 14:18:49;;;;;;;2.10;0.80;;;;;;;;;;5359452;26;20257;-81
2024/04/18 14:21:36;;;;;;;4.10;0.90;;;;;;;;;;5383844;26;20262;-82
2024/04/18 14:24:04;;;;;;;2.87;0.70;;;;;;;;;;5349413;26;20258;-81
2024/04/18 14:26:34;;;;;;;4.13;1.00;;;;;;;;;;5312032;26;20266;-82
2024/04/18 14:29:19;;;;;;;4.10;3.57;;;;;;;;;;5350024;26;20681;-81
2024/04/18 14:31:59;;;;;;;2.77;2.03;;;;;;;;;;5354053;26;20735;-82
2024/04/18 14:34:45;;;;;;;2.13;0.90;;;;;;;;;;5355819;26;20249;-81
2024/04/18 14:37:11;;;;;;;2.17;0.90;;;;;;;;;;5402009;26;21034;-80
2024/04/18 14:39:37;;;;;;;1.55;0.80;;;;;;;;;;5326242;26;20255;-89
2024/04/18 14:42:06;;;;;;;2.03;0.90;;;;;;;;;;5350563;26;20309;-87
2024/04/18 14:44:32;;;;;;;2.27;0.83;;;;;;;;;;5373017;26;20310;-87
2024/04/18 14:47:11;;;;;;;2.00;1.03;;;;;;;;;;5329968;26;20242;-88
2024/04/18 14:49:54;;;;;;;2.97;0.87;;;;;;;;;;5370138;26;20948;-88
2024/04/18 14:52:32;;;;;;;2.20;0.87;;;;;;;;;;5379308;26;20365;-88
2024/04/18 14:54:59;;;;;;;2.50;0.70;;;;;;;;;;5354069;26;20262;-89
2024/04/18 14:57:30;;;;;;;1.83;0.70;;;;;;;;;;5331440;26;20258;-85
2024/04/18 15:00:20;;;;;;;2.67;0.90;;;;;;;;;;5365186;26;20301;-86